Time;durP1;ratioP1;P1;durP2;ratioP2;P2;SDS_P1;SDS_P2;PMS_P1;PMS_P2;Temp;Humidity;BMP_temperature;BMP_pressure;BME280_temperature;BME280_humidity;BME280_pressure;Samples;Min_cycle;Max_cycle;Signal;HPM_P1;HPM_P2
2022/07/01 00:00:26;;;;;;;14.37;10.63;;;;;;;20.02;100.00;100341.47;5028083;28;20208;-71
2022/07/01 00:02:52;;;;;;;17.27;10.77;;;;;;;19.96;100.00;100341.88;5035078;28;20592;-71
2022/07/01 00:05:19;;;;;;;15.93;11.60;;;;;;;19.88;100.00;100338.09;5027022;28;20196;-71
2022/07/01 00:07:48;;;;;;;13.37;10.87;;;;;;;19.81;100.00;100335.88;5031675;28;20200;-71
2022/07/01 00:10:14;;;;;;;14.90;10.93;;;;;;;19.75;100.00;100327.50;5024737;28;20660;-71
2022/07/01 00:12:41;;;;;;;13.80;10.07;;;;;;;19.70;100.00;100343.66;5032621;28;20681;-71
2022/07/01 00:15:09;;;;;;;18.20;11.53;;;;;;;19.63;100.00;100331.78;5022394;28;20211;-71
2022/07/01 00:17:36;;;;;;;15.90;11.63;;;;;;;19.59;100.00;100335.63;5032754;28;20258;-71
2022/07/01 00:20:02;;;;;;;14.83;11.27;;;;;;;19.55;100.00;100326.22;5019854;28;20200;-71
2022/07/01 00:22:29;;;;;;;16.53;11.23;;;;;;;19.48;100.00;100323.97;5026898;28;20220;-71
2022/07/01 00:24:56;;;;;;;18.90;11.23;;;;;;;19.44;100.00;100322.50;5026242;28;20203;-71
2022/07/01 00:27:23;;;;;;;18.77;11.37;;;;;;;19.39;100.00;100318.47;5031037;28;20203;-71
2022/07/01 00:29:49;;;;;;;17.63;11.43;;;;;;;19.36;100.00;100316.88;5030617;28;20206;-71
2022/07/01 00:32:16;;;;;;;16.50;11.40;;;;;;;19.33;100.00;100324.16;5024007;28;20580;-71
2022/07/01 00:34:43;;;;;;;16.60;11.93;;;;;;;19.30;100.00;100322.59;5029828;28;20219;-71
2022/07/01 00:37:11;;;;;;;14.10;11.10;;;;;;;19.25;100.00;100329.97;5034063;28;20735;-71
2022/07/01 00:39:38;;;;;;;15.07;10.93;;;;;;;19.21;100.00;100331.97;5026016;28;20195;-71
2022/07/01 00:42:06;;;;;;;16.83;10.97;;;;;;;19.16;100.00;100325.31;5028106;28;20232;-71
2022/07/01 00:44:33;;;;;;;15.03;11.20;;;;;;;19.12;100.00;100327.31;5027449;28;20207;-71
2022/07/01 00:47:02;;;;;;;16.70;11.10;;;;;;;19.08;100.00;100325.81;5034882;28;20216;-71
2022/07/01 00:49:29;;;;;;;16.57;11.30;;;;;;;19.02;100.00;100332.34;5019991;28;20193;-71
2022/07/01 00:51:57;;;;;;;16.03;11.23;;;;;;;18.98;100.00;100330.88;5028724;28;20211;-71
2022/07/01 00:54:24;;;;;;;16.20;11.13;;;;;;;18.96;100.00;100330.13;5021849;28;20505;-71
2022/07/01 00:56:51;;;;;;;15.97;10.57;;;;;;;18.92;100.00;100324.16;5030648;28;20567;-71
2022/07/01 00:59:19;;;;;;;13.63;10.53;;;;;;;18.91;100.00;100333.06;5021675;28;20208;-71
2022/07/01 01:01:45;;;;;;;13.93;10.57;;;;;;;18.86;100.00;100327.22;5028411;28;20223;-71
2022/07/01 01:04:11;;;;;;;16.57;11.63;;;;;;;18.82;100.00;100335.44;5033182;28;20207;-71
2022/07/01 01:06:38;;;;;;;15.03;10.47;;;;;;;18.78;100.00;100336.56;5001424;28;20208;-71
2022/07/01 01:09:04;;;;;;;16.23;11.50;;;;;;;18.75;100.00;100340.28;5026960;28;20231;-71
2022/07/01 01:11:31;;;;;;;15.80;10.77;;;;;;;18.71;100.00;100344.91;5021398;28;20673;-71
2022/07/01 01:13:58;;;;;;;14.63;10.77;;;;;;;18.70;100.00;100340.56;5030106;28;20255;-71
2022/07/01 01:16:26;;;;;;;17.07;10.90;;;;;;;18.68;100.00;100345.09;5021730;28;20208;-71
2022/07/01 01:18:53;;;;;;;14.27;11.07;;;;;;;18.64;100.00;100337.47;5015923;28;20662;-71
2022/07/01 01:21:21;;;;;;;14.47;10.63;;;;;;;18.63;100.00;100333.97;5018921;28;20201;-71
2022/07/01 01:23:48;;;;;;;15.97;11.00;;;;;;;18.60;100.00;100330.69;5028281;28;20215;-71
2022/07/01 01:26:16;;;;;;;14.87;11.30;;;;;;;18.56;100.00;100332.69;5017370;28;20677;-71
2022/07/01 01:28:43;;;;;;;12.87;10.13;;;;;;;18.53;100.00;100328.44;5030277;28;20200;-71
2022/07/01 01:31:10;;;;;;;16.43;10.87;;;;;;;18.53;100.00;100340.78;5018229;28;20200;-71
2022/07/01 01:33:37;;;;;;;14.07;10.60;;;;;;;18.47;100.00;100338.56;5030120;28;20770;-71
2022/07/01 01:36:04;;;;;;;16.27;11.57;;;;;;;18.43;100.00;100324.69;5025498;28;20196;-71
2022/07/01 01:38:32;;;;;;;16.57;11.30;;;;;;;18.39;100.00;100323.19;5024745;28;20327;-71
2022/07/01 01:40:58;;;;;;;17.30;10.90;;;;;;;18.37;100.00;100325.09;5025417;28;20245;-71
2022/07/01 01:43:25;;;;;;;18.80;10.93;;;;;;;18.37;100.00;100324.25;5015902;28;20712;-71
2022/07/01 01:45:51;;;;;;;15.33;10.90;;;;;;;18.36;100.00;100318.09;5016740;28;21412;-71
2022/07/01 01:48:17;;;;;;;13.80;9.80;;;;;;;18.34;100.00;100310.28;5018684;28;20212;-71
2022/07/01 01:50:44;;;;;;;15.70;10.87;;;;;;;18.36;100.00;100310.19;5030469;28;20207;-71
2022/07/01 01:53:11;;;;;;;18.97;11.40;;;;;;;18.32;100.00;100317.44;5028929;28;20219;-71
2022/07/01 01:55:38;;;;;;;15.20;10.20;;;;;;;18.25;100.00;100316.13;5026402;28;20196;-71
2022/07/01 01:58:05;;;;;;;16.83;10.80;;;;;;;18.25;100.00;100313.50;5026041;28;20214;-71
2022/07/01 02:00:31;;;;;;;15.33;11.07;;;;;;;18.25;100.00;100312.66;5023070;28;20196;-71
2022/07/01 02:02:58;;;;;;;15.10;10.37;;;;;;;18.21;100.00;100301.47;5014627;28;20224;-71
2022/07/01 02:05:24;;;;;;;14.53;10.03;;;;;;;18.18;100.00;100299.00;5032829;28;20208;-71
2022/07/01 02:07:50;;;;;;;15.33;10.07;;;;;;;18.12;100.00;100297.59;5042586;28;20401;-71
2022/07/01 02:10:18;;;;;;;16.60;10.67;;;;;;;18.12;100.00;100310.81;5028670;28;20210;-71
2022/07/01 02:12:47;;;;;;;15.60;9.87;;;;;;;18.12;100.00;100307.31;5042629;28;20218;-71
2022/07/01 02:15:13;;;;;;;16.00;10.40;;;;;;;18.11;100.00;100314.38;5029950;28;20197;-71
2022/07/01 02:17:40;;;;;;;15.33;10.17;;;;;;;18.11;100.00;100306.44;5042540;28;20200;-71
2022/07/01 02:20:07;;;;;;;17.13;10.90;;;;;;;18.11;100.00;100305.63;5027891;28;20688;-71
2022/07/01 02:22:33;;;;;;;16.23;10.60;;;;;;;18.08;100.00;100298.75;5019429;28;20677;-71
2022/07/01 02:25:00;;;;;;;13.73;9.73;;;;;;;18.04;100.00;100293.75;5030178;28;20207;-71
2022/07/01 02:27:26;;;;;;;14.27;10.33;;;;;;;18.06;100.00;100299.78;5029539;28;20234;-71
2022/07/01 02:29:54;;;;;;;13.93;10.17;;;;;;;18.06;100.00;100302.41;5028981;28;20204;-71
2022/07/01 02:32:20;;;;;;;15.70;11.03;;;;;;;17.99;100.00;100299.31;5026350;28;20252;-71
2022/07/01 02:34:47;;;;;;;16.13;10.73;;;;;;;17.97;100.00;100290.66;5017836;28;20197;-71
2022/07/01 02:37:13;;;;;;;15.93;10.27;;;;;;;17.97;100.00;100303.84;5026836;28;20192;-71
2022/07/01 02:39:40;;;;;;;18.47;11.80;;;;;;;17.95;100.00;100298.66;5025425;28;20210;-71
2022/07/01 02:44:58;;;;;;;13.93;10.60;;;;;;;17.91;100.00;100297.16;5021295;28;20655;-71
2022/07/01 02:47:24;;;;;;;16.00;10.53;;;;;;;17.93;100.00;100303.19;5023036;28;21405;-71
2022/07/01 02:49:52;;;;;;;15.23;11.00;;;;;;;17.93;100.00;100313.72;5023988;28;20722;-71
2022/07/01 02:52:19;;;;;;;14.77;10.97;;;;;;;17.91;100.00;100314.78;5027504;28;20298;-71
2022/07/01 02:54:45;;;;;;;16.27;10.60;;;;;;;17.87;100.00;100314.13;5028956;28;20204;-71
2022/07/01 02:57:12;;;;;;;15.70;11.17;;;;;;;17.85;100.00;100318.59;5022356;28;20222;-71
2022/07/01 02:59:38;;;;;;;15.00;9.90;;;;;;;17.85;100.00;100315.94;5026344;28;20270;-71
2022/07/01 03:02:06;;;;;;;16.50;10.70;;;;;;;17.79;100.00;100314.53;5025099;28;20219;-71
2022/07/01 03:04:32;;;;;;;14.50;10.07;;;;;;;17.79;100.00;100306.63;5017116;28;20184;-71
2022/07/01 03:06:59;;;;;;;14.93;9.97;;;;;;;17.78;100.00;100304.09;5028585;28;20200;-71
2022/07/01 03:09:26;;;;;;;15.33;10.33;;;;;;;17.81;100.00;100319.72;5009353;28;20588;-71
2022/07/01 03:11:52;;;;;;;14.33;10.27;;;;;;;17.76;100.00;100313.88;5026800;28;20207;-71
2022/07/01 03:14:19;;;;;;;15.50;10.83;;;;;;;17.79;100.00;100325.09;5027885;28;20660;-71
2022/07/01 03:16:46;;;;;;;13.73;10.33;;;;;;;17.79;100.00;100321.63;5026375;28;20200;-71
2022/07/01 03:19:15;;;;;;;18.13;10.80;;;;;;;17.80;100.00;100323.31;5027389;28;20812;-71
2022/07/01 03:21:41;;;;;;;13.20;10.03;;;;;;;17.80;100.00;100323.31;5016400;28;20204;-71
2022/07/01 03:24:08;;;;;;;15.47;10.63;;;;;;;17.79;100.00;100325.09;5021409;28;20219;-71
2022/07/01 03:26:34;;;;;;;15.03;10.60;;;;;;;17.79;100.00;100325.09;5007345;28;20226;-71
2022/07/01 03:29:01;;;;;;;16.37;10.90;;;;;;;17.82;100.00;100334.63;5027660;28;20687;-71
2022/07/01 03:31:27;;;;;;;16.40;11.13;;;;;;;17.84;100.00;100334.53;5027856;28;20196;-71
2022/07/01 03:33:53;;;;;;;15.57;11.47;;;;;;;17.84;100.00;100331.91;5055237;22;20840;-76
2022/07/01 03:36:21;;;;;;;16.67;11.63;;;;;;;17.89;100.00;100329.84;5027829;28;20711;-75
2022/07/01 03:38:47;;;;;;;16.63;10.67;;;;;;;17.92;100.00;100329.66;5007907;28;20202;-75
2022/07/01 03:41:14;;;;;;;14.83;10.43;;;;;;;18.02;100.00;100327.31;5012292;28;20579;-78
2022/07/01 03:43:40;;;;;;;16.40;11.97;;;;;;;18.07;100.00;100330.50;5037025;28;20212;-78
2022/07/01 03:46:07;;;;;;;20.40;11.87;;;;;;;18.08;100.00;100329.53;5025633;28;20228;-78
2022/07/01 03:48:34;;;;;;;16.57;11.17;;;;;;;18.15;100.00;100323.81;5014561;28;20628;-78
2022/07/01 03:51:00;;;;;;;19.00;13.33;;;;;;;18.29;100.00;100320.31;5027607;28;20204;-78
2022/07/01 03:56:12;;;;;;;18.87;12.27;;;;;;;18.62;100.00;100318.22;5032893;28;20208;-78
2022/07/01 03:58:39;;;;;;;20.17;12.60;;;;;;;18.78;100.00;100318.91;5032160;28;20203;-78
2022/07/01 04:01:05;;;;;;;20.07;12.73;;;;;;;18.89;100.00;100321.75;5038865;28;20235;-78
2022/07/01 04:03:31;;;;;;;18.93;12.23;;;;;;;19.01;100.00;100322.72;5032410;28;20721;-78
2022/07/01 04:05:58;;;;;;;20.53;12.00;;;;;;;19.10;100.00;100324.78;5027825;28;20187;-77
2022/07/01 04:08:25;;;;;;;19.27;13.37;;;;;;;19.24;100.00;100326.50;5026595;28;20283;-77
2022/07/01 04:10:54;;;;;;;18.30;13.27;;;;;;;19.36;100.00;100332.72;5033214;28;20206;-77
2022/07/01 04:13:21;;;;;;;19.03;13.57;;;;;;;19.49;100.00;100336.25;5030134;28;20216;-77
2022/07/01 04:15:47;;;;;;;17.97;12.33;;;;;;;19.60;100.00;100334.69;5030763;28;20218;-77
2022/07/01 04:18:14;;;;;;;17.80;11.73;;;;;;;19.72;100.00;100331.19;5027816;28;20196;-77
2022/07/01 04:20:40;;;;;;;23.03;12.83;;;;;;;19.86;100.00;100336.38;5030597;28;20714;-77
2022/07/01 04:23:06;;;;;;;19.00;12.77;;;;;;;19.98;100.00;100341.75;5014438;28;20216;-77
2022/07/01 04:25:33;;;;;;;18.37;12.50;;;;;;;20.12;100.00;100339.03;5012979;28;20640;-77
2022/07/01 04:28:02;;;;;;;19.87;12.57;;;;;;;20.24;100.00;100351.38;5030126;28;20291;-77
2022/07/01 04:30:28;;;;;;;15.80;11.10;;;;;;;20.35;100.00;100352.41;5034699;28;20205;-77
2022/07/01 04:32:54;;;;;;;18.40;11.70;;;;;;;20.51;100.00;100347.72;5029785;28;20582;-77
2022/07/01 04:35:21;;;;;;;17.40;11.97;;;;;;;20.60;100.00;100354.97;5028906;28;20196;-77
2022/07/01 04:37:47;;;;;;;19.07;12.17;;;;;;;20.70;100.00;100346.38;5024740;28;20196;-77
2022/07/01 04:40:14;;;;;;;17.30;11.60;;;;;;;20.84;100.00;100343.56;5025110;28;20199;-77
2022/07/01 04:42:39;;;;;;;16.10;11.40;;;;;;;20.96;100.00;100347.97;5030743;28;20222;-77
2022/07/01 04:45:10;;;;;;;16.73;11.67;;;;;;;21.06;100.00;100344.66;5030285;28;20203;-77
2022/07/01 04:47:36;;;;;;;16.37;11.00;;;;;;;21.11;100.00;100345.16;5027207;28;20224;-77
2022/07/01 04:50:02;;;;;;;15.50;10.93;;;;;;;21.21;100.00;100355.91;5030731;28;20199;-77
2022/07/01 04:52:29;;;;;;;16.27;10.93;;;;;;;21.32;100.00;100348.84;5025427;28;20220;-77
2022/07/01 04:54:55;;;;;;;15.23;11.33;;;;;;;21.43;100.00;100341.88;5026199;28;20667;-77
2022/07/01 04:57:33;;;;;;;16.80;11.43;;;;;;;21.51;100.00;100345.66;5029138;28;20183;-77
2022/07/01 04:59:59;;;;;;;14.00;10.20;;;;;;;21.60;100.00;100346.78;5034741;28;20204;-77
2022/07/01 05:02:27;;;;;;;15.97;10.73;;;;;;;21.70;100.00;100353.03;5025138;28;20247;-77
2022/07/01 05:04:54;;;;;;;13.43;10.47;;;;;;;21.82;100.00;100359.19;5027869;28;20196;-78
2022/07/01 05:07:29;;;;;;;13.00;10.03;;;;;;;21.93;100.00;100363.66;5028432;28;20204;-77
2022/07/01 05:09:56;;;;;;;13.73;9.97;;;;;;;22.02;100.00;100359.44;5029306;28;20254;-77
2022/07/01 05:12:22;;;;;;;13.50;10.75;;;;;;;22.13;100.00;100356.81;5026160;28;20223;-76
2022/07/01 05:14:49;;;;;;;14.23;10.88;;;;;;;22.24;100.00;100362.09;5031224;28;20203;-76
2022/07/01 05:17:15;;;;;;;14.10;10.48;;;;;;;22.34;100.00;100364.06;5028780;28;20200;-76
2022/07/01 05:22:27;;;;;;;14.02;10.30;;;;;;;22.57;100.00;100359.59;5024770;28;20234;-76
2022/07/01 05:24:53;;;;;;;12.77;10.40;;;;;;;22.67;100.00;100356.06;5029219;28;20494;-76
2022/07/01 05:27:20;;;;;;;13.70;9.80;;;;;;;22.82;100.00;100361.06;5026453;28;20562;-76
2022/07/01 05:29:47;;;;;;;11.65;9.32;;;;;;;22.94;100.00;100356.56;5029406;28;20211;-76
2022/07/01 05:32:14;;;;;;;14.38;9.10;;;;;;;23.03;100.00;100361.13;5029117;28;20699;-76
2022/07/01 05:34:40;;;;;;;12.77;9.52;;;;;;;23.15;100.00;100357.47;5009950;28;20196;-76
2022/07/01 05:37:08;;;;;;;12.05;9.07;;;;;;;23.20;100.00;100363.25;5029013;28;20232;-76
2022/07/01 05:39:34;;;;;;;12.45;9.25;;;;;;;23.28;100.00;100364.44;5013717;28;20237;-76
2022/07/01 05:42:01;;;;;;;16.23;9.75;;;;;;;23.39;100.00;100361.69;5028912;28;20672;-77
2022/07/01 05:44:27;;;;;;;12.38;8.73;;;;;;;23.49;100.00;100369.75;5028858;28;20222;-76
2022/07/01 05:46:54;;;;;;;11.70;8.85;;;;;;;23.60;100.00;100364.34;5029244;28;20199;-76
2022/07/01 05:49:20;;;;;;;11.45;9.48;;;;;;;23.65;100.00;100363.97;5034334;28;20196;-76
2022/07/01 05:51:47;;;;;;;11.98;9.05;;;;;;;23.75;100.00;100360.41;5006086;28;20580;-76
2022/07/01 05:54:15;;;;;;;11.38;8.27;;;;;;;23.83;100.00;100366.91;5022958;28;20224;-76
2022/07/01 05:56:41;;;;;;;11.05;8.25;;;;;;;23.89;99.88;100372.56;5026198;28;20198;-76
2022/07/01 05:59:08;;;;;;;11.68;8.43;;;;;;;24.02;97.97;100364.34;5031319;28;20560;-76
2022/07/01 06:01:34;;;;;;;11.20;8.38;;;;;;;24.13;96.09;100374.91;5030539;28;20200;-76
2022/07/01 06:04:01;;;;;;;12.25;8.02;;;;;;;24.24;99.24;100370.44;5031905;28;20212;-76
2022/07/01 06:06:28;;;;;;;12.50;8.30;;;;;;;24.33;97.14;100367.81;5030949;28;20196;-76
2022/07/01 06:08:55;;;;;;;12.98;7.88;;;;;;;24.42;95.45;100366.16;5032905;28;20400;-76
2022/07/01 06:11:22;;;;;;;9.68;7.57;;;;;;;24.51;94.05;100365.34;5027045;28;20207;-76
2022/07/01 06:13:49;;;;;;;11.55;7.78;;;;;;;24.58;94.31;100365.69;5027251;28;20211;-76
2022/07/01 06:16:15;;;;;;;11.50;8.43;;;;;;;24.68;95.77;100355.88;5022656;28;20205;-75
2022/07/01 06:18:42;;;;;;;9.45;7.05;;;;;;;24.73;95.30;100366.97;5025336;28;20209;-76
2022/07/01 06:21:08;;;;;;;10.52;7.70;;;;;;;24.83;96.50;100364.31;5021024;28;20226;-76
2022/07/01 06:23:34;;;;;;;9.88;7.60;;;;;;;24.89;92.92;100370.91;5023941;28;20549;-76
2022/07/01 06:26:01;;;;;;;10.43;7.28;;;;;;;25.01;92.63;100374.28;5019373;28;20196;-76
2022/07/01 06:28:29;;;;;;;10.27;7.00;;;;;;;25.00;93.83;100372.63;5024579;28;20188;-76
2022/07/01 06:30:56;;;;;;;7.53;6.57;;;;;;;25.04;92.34;100371.34;5010286;28;20497;-76
2022/07/01 06:33:23;;;;;;;10.02;7.75;;;;;;;25.12;91.58;100360.81;5026779;28;20224;-76
2022/07/01 06:35:51;;;;;;;8.50;6.65;;;;;;;25.12;91.23;100363.50;5030602;28;20680;-76
2022/07/01 06:38:17;;;;;;;9.02;6.60;;;;;;;25.21;89.64;100367.97;5023914;28;20192;-76
2022/07/01 06:41:26;;;;;;;8.32;6.57;;;;;;;25.34;90.06;100367.69;5025791;28;20202;-76
2022/07/01 06:43:31;;;;;;;8.23;7.13;;;;;;;25.47;88.63;100367.41;5002519;28;20581;-76
2022/07/01 06:45:57;;;;;;;8.27;6.43;;;;;;;25.47;90.12;100364.72;5002344;28;20678;-76
2022/07/01 06:48:24;;;;;;;8.55;5.95;;;;;;;25.53;88.78;100363.34;5029010;28;20192;-76
2022/07/01 06:50:50;;;;;;;8.27;6.20;;;;;;;25.66;87.83;100372.72;5028057;28;20210;-76
2022/07/01 06:53:17;;;;;;;10.20;6.85;;;;;;;25.79;88.02;100364.41;5031627;28;20475;-76
2022/07/01 06:55:43;;;;;;;9.65;7.40;;;;;;;25.75;91.26;100355.00;5015936;28;20204;-76
2022/07/01 06:58:10;;;;;;;9.48;7.05;;;;;;;25.78;89.50;100364.53;5028519;28;20212;-74
2022/07/01 07:00:38;;;;;;;9.68;7.25;;;;;;;25.87;88.63;100369.84;5027835;28;20200;-75
2022/07/01 07:03:04;;;;;;;8.02;7.22;;;;;;;25.98;89.55;100368.00;5032385;28;20631;-75
2022/07/01 07:05:31;;;;;;;10.70;6.90;;;;;;;26.03;87.83;100368.41;5027629;28;20230;-75
2022/07/01 07:07:57;;;;;;;9.05;7.13;;;;;;;26.07;89.22;100354.63;5025716;28;20195;-75
2022/07/01 07:10:24;;;;;;;11.88;7.00;;;;;;;26.12;88.92;100351.53;5024825;28;20199;-75
2022/07/01 07:12:50;;;;;;;10.05;7.70;;;;;;;26.24;88.62;100354.81;5025572;28;20230;-75
2022/07/01 07:15:17;;;;;;;9.15;7.20;;;;;;;26.26;86.36;100352.84;5025554;28;20196;-75
2022/07/01 07:17:44;;;;;;;8.00;6.72;;;;;;;26.31;87.82;100355.06;5026492;28;20207;-75
2022/07/01 07:20:11;;;;;;;8.20;6.97;;;;;;;26.48;88.55;100348.94;5033058;28;20195;-75
2022/07/01 07:22:38;;;;;;;10.07;6.95;;;;;;;26.53;85.64;100345.81;5015757;28;20232;-75
2022/07/01 07:25:05;;;;;;;8.43;6.50;;;;;;;26.56;85.11;100343.69;5028319;28;20690;-74
2022/07/01 07:27:31;;;;;;;8.75;7.32;;;;;;;26.61;83.20;100348.56;5009131;28;20227;-75
2022/07/01 07:29:58;;;;;;;7.80;6.72;;;;;;;26.72;86.91;100345.72;5009639;28;20201;-75
2022/07/01 07:32:24;;;;;;;12.18;7.32;;;;;;;26.87;87.66;100340.66;5032023;28;20255;-75
2022/07/01 07:34:52;;;;;;;8.32;7.13;;;;;;;26.90;84.94;100350.22;5033649;28;20544;-75
2022/07/01 07:37:19;;;;;;;8.27;6.97;;;;;;;26.85;81.93;100355.19;5031118;28;20200;-75
2022/07/01 07:39:45;;;;;;;7.90;6.50;;;;;;;26.90;84.26;100353.72;5031466;28;20196;-75
2022/07/01 07:42:13;;;;;;;8.90;6.63;;;;;;;26.96;82.79;100355.78;5014390;28;20191;-74
2022/07/01 07:44:39;;;;;;;7.50;6.35;;;;;;;27.01;83.79;100360.69;5028864;28;20208;-75
2022/07/01 07:47:06;;;;;;;8.65;6.35;;;;;;;27.17;82.14;100365.34;5013179;28;20584;-75
2022/07/01 07:49:32;;;;;;;7.93;5.95;;;;;;;27.31;80.79;100366.66;5028327;28;20663;-75
2022/07/01 07:52:00;;;;;;;6.85;6.22;;;;;;;27.27;79.95;100382.19;5034525;28;20206;-75
2022/07/01 07:54:27;;;;;;;9.25;6.97;;;;;;;27.31;82.22;100377.34;5032236;28;20215;-74
2022/07/01 07:56:54;;;;;;;8.65;7.07;;;;;;;27.29;80.91;100382.88;5027638;28;20192;-75
2022/07/01 07:59:20;;;;;;;7.88;7.07;;;;;;;27.35;82.66;100386.75;5028816;28;20243;-75
2022/07/01 08:01:47;;;;;;;8.90;7.40;;;;;;;27.37;80.21;100379.44;5031053;28;20575;-75
2022/07/01 08:04:13;;;;;;;10.07;6.78;;;;;;;27.45;80.80;100378.63;5007557;28;20693;-75
2022/07/01 08:06:40;;;;;;;7.78;6.80;;;;;;;27.46;78.86;100370.47;5031203;28;20668;-75
2022/07/01 08:09:08;;;;;;;8.82;7.10;;;;;;;27.61;78.37;100375.25;5031101;28;20203;-75
2022/07/01 08:11:34;;;;;;;7.82;6.63;;;;;;;27.66;77.15;100379.13;5028153;28;20538;-75
2022/07/01 08:14:00;;;;;;;11.75;7.05;;;;;;;27.80;79.88;100374.19;5031651;28;20215;-75
2022/07/01 08:16:27;;;;;;;7.68;5.95;;;;;;;27.88;74.72;100387.63;5011046;28;20273;-75
2022/07/01 08:18:54;;;;;;;8.52;6.07;;;;;;;27.95;74.89;100388.72;5024890;28;20204;-75
2022/07/01 08:21:20;;;;;;;7.72;6.50;;;;;;;27.88;75.43;100390.28;5011059;28;20195;-75
2022/07/01 08:23:46;;;;;;;7.72;6.38;;;;;;;27.99;76.20;100387.38;5031848;28;20235;-75
2022/07/01 08:26:16;;;;;;;7.90;6.70;;;;;;;27.79;77.63;100383.22;5011830;28;20673;-75
2022/07/01 08:28:43;;;;;;;7.80;6.72;;;;;;;27.93;78.37;100378.16;5034488;28;20183;-75
2022/07/01 08:31:10;;;;;;;7.75;6.95;;;;;;;28.02;77.50;100389.75;5014518;28;21395;-75
2022/07/01 08:33:38;;;;;;;10.90;6.88;;;;;;;28.16;77.35;100392.81;5025426;28;20459;-75
2022/07/01 08:36:05;;;;;;;7.30;6.60;;;;;;;28.27;75.46;100398.75;5022603;28;20600;-75
2022/07/01 08:38:31;;;;;;;9.60;7.40;;;;;;;28.42;76.13;100393.59;5011788;28;20204;-75
2022/07/01 08:40:58;;;;;;;7.30;6.57;;;;;;;28.56;73.59;100400.22;5024411;28;20199;-75
2022/07/01 08:43:25;;;;;;;9.80;7.32;;;;;;;28.71;72.34;100403.13;5028394;28;20685;-75
2022/07/01 08:45:52;;;;;;;7.95;6.60;;;;;;;28.76;71.49;100394.56;5034092;28;20235;-75
2022/07/01 08:48:19;;;;;;;9.60;6.80;;;;;;;28.67;71.20;100402.63;5029276;28;20231;-75
2022/07/01 08:50:45;;;;;;;10.13;6.55;;;;;;;28.56;70.41;100405.59;5027598;28;20200;-75
2022/07/01 08:53:13;;;;;;;7.22;6.53;;;;;;;28.62;70.91;100413.00;5022704;28;20226;-75
2022/07/01 08:58:22;;;;;;;7.70;6.50;;;;;;;28.68;71.99;100403.44;5019981;28;20227;-75
2022/07/01 09:00:50;;;;;;;7.82;6.72;;;;;;;28.87;71.86;100397.78;5021946;28;20195;-75
2022/07/01 09:03:22;;;;;;;8.30;6.80;;;;;;;29.02;71.33;100391.75;5023047;28;20220;-75
2022/07/01 09:05:51;;;;;;;6.47;5.85;;;;;;;29.06;68.92;100403.88;5027419;28;20216;-75
2022/07/01 09:08:17;;;;;;;8.07;6.70;;;;;;;29.09;68.30;100419.59;5029936;28;20208;-75
2022/07/01 09:10:44;;;;;;;7.68;6.85;;;;;;;29.00;68.51;100412.56;5028132;28;20196;-75
2022/07/01 09:13:12;;;;;;;8.23;6.40;;;;;;;29.07;66.90;100410.91;5024559;28;20224;-75
2022/07/01 09:15:41;;;;;;;8.65;6.50;;;;;;;28.84;67.83;100405.31;5012173;28;20196;-75
2022/07/01 09:18:12;;;;;;;7.30;6.50;;;;;;;28.65;69.59;100407.31;5028936;28;20568;-75
2022/07/01 09:20:40;;;;;;;7.50;6.70;;;;;;;28.74;68.63;100408.13;5029642;28;20198;-75
2022/07/01 09:23:10;;;;;;;7.22;6.28;;;;;;;28.86;68.41;100404.13;5024144;28;20226;-75
2022/07/01 09:25:39;;;;;;;7.45;5.82;;;;;;;28.96;67.69;100404.00;5028494;28;20215;-75
2022/07/01 09:28:12;;;;;;;7.97;6.60;;;;;;;28.67;69.32;100399.06;5029451;28;20207;-75
2022/07/01 09:30:39;;;;;;;13.20;7.47;;;;;;;28.49;69.49;100402.66;5026727;28;20192;-75
2022/07/01 09:33:12;;;;;;;11.40;6.93;;;;;;;28.43;70.28;100403.34;5028575;28;20231;-76
2022/07/01 09:35:39;;;;;;;8.88;6.63;;;;;;;28.63;72.79;100409.28;5032880;28;20196;-76
2022/07/01 09:38:07;;;;;;;7.25;6.50;;;;;;;28.45;69.25;100413.91;5013824;28;20212;-77
2022/07/01 09:40:50;;;;;;;10.68;7.18;;;;;;;28.39;70.53;100414.53;5008326;28;20226;-77
2022/07/01 09:43:17;;;;;;;12.20;6.95;;;;;;;28.56;68.60;100418.97;5015875;28;20256;-76
2022/07/01 09:45:52;;;;;;;8.25;7.00;;;;;;;28.48;68.32;100425.13;5012160;28;20227;-77
2022/07/01 09:48:21;;;;;;;9.45;6.90;;;;;;;28.38;70.64;100427.09;5019443;28;20200;-76
2022/07/01 09:50:47;;;;;;;8.60;7.80;;;;;;;28.11;71.18;100441.56;5032738;28;20199;-76
2022/07/01 09:53:14;;;;;;;11.10;7.97;;;;;;;27.58;72.10;100448.66;5012024;28;20228;-76
2022/07/01 09:55:41;;;;;;;12.40;7.55;;;;;;;27.18;73.11;100442.78;5034338;28;20287;-76
2022/07/01 09:58:07;;;;;;;10.80;7.78;;;;;;;26.96;74.28;100449.41;5028093;28;20195;-76
2022/07/01 10:00:36;;;;;;;8.55;6.50;;;;;;;26.88;73.95;100453.81;5027049;28;20206;-76
2022/07/01 10:03:02;;;;;;;9.40;6.28;;;;;;;27.20;74.65;100456.00;5023210;28;20216;-77
2022/07/01 10:05:32;;;;;;;15.18;5.07;;;;;;;27.44;71.83;100463.47;5019462;28;20212;-77
2022/07/01 10:08:11;;;;;;;5.68;4.63;;;;;;;27.60;71.50;100467.25;5028858;28;20538;-77
2022/07/01 10:10:45;;;;;;;4.22;3.70;;;;;;;27.73;71.24;100470.38;5028956;28;20289;-77
2022/07/01 10:13:14;;;;;;;4.65;4.13;;;;;;;27.57;70.95;100477.28;5026439;28;20584;-76
2022/07/01 10:15:42;;;;;;;6.65;3.70;;;;;;;27.45;69.78;100497.25;5032844;28;20525;-76
2022/07/01 10:18:19;;;;;;;3.90;3.60;;;;;;;27.24;69.47;100502.88;5014534;28;20668;-77
2022/07/01 10:20:48;;;;;;;5.28;3.22;;;;;;;26.98;71.71;100508.09;5027534;28;20196;-76
2022/07/01 10:23:15;;;;;;;5.90;3.30;;;;;;;26.78;71.46;100507.38;5019992;28;20714;-76
2022/07/01 10:25:43;;;;;;;3.78;3.40;;;;;;;26.57;73.79;100508.41;5022948;28;20231;-76
2022/07/01 10:28:25;;;;;;;6.60;3.20;;;;;;;26.72;73.77;100515.97;5031949;28;20207;-76
2022/07/01 10:31:01;;;;;;;4.28;3.15;;;;;;;26.78;71.25;100536.78;5028234;28;20286;-76
2022/07/01 10:33:49;;;;;;;4.00;3.60;;;;;;;26.60;71.65;100531.34;5023374;28;20662;-76
2022/07/01 10:36:28;;;;;;;3.45;3.15;;;;;;;26.39;70.73;100540.41;5004803;28;20208;-76
2022/07/01 10:39:13;;;;;;;5.68;3.15;;;;;;;26.10;71.12;100544.97;5009112;28;20204;-76
2022/07/01 10:41:42;;;;;;;4.47;3.20;;;;;;;25.95;73.51;100549.91;5027679;28;20667;-76
2022/07/01 10:44:10;;;;;;;3.35;3.10;;;;;;;25.50;73.76;100562.81;5025059;28;20563;-75
2022/07/01 10:46:43;;;;;;;3.25;2.95;;;;;;;25.61;74.08;100574.31;5009306;28;20211;-76
2022/07/01 10:49:12;;;;;;;3.80;3.40;;;;;;;25.53;73.77;100580.34;5005285;28;20291;-76
2022/07/01 10:51:51;;;;;;;3.05;2.67;;;;;;;25.08;74.34;100594.09;5012731;28;20286;-77
2022/07/01 10:54:47;;;;;;;3.05;2.75;;;;;;;25.14;74.15;100593.56;5022785;28;20262;-77
2022/07/01 10:57:23;;;;;;;3.05;2.80;;;;;;;25.03;74.70;100589.19;5024964;28;20660;-77
2022/07/01 10:59:50;;;;;;;3.67;2.78;;;;;;;24.72;74.58;100601.69;5012258;28;20204;-77
2022/07/01 11:02:20;;;;;;;2.63;2.42;;;;;;;24.63;74.32;100595.31;5008578;28;20195;-77
2022/07/01 11:04:47;;;;;;;2.58;2.38;;;;;;;24.77;75.86;100607.47;5003212;28;20234;-77
2022/07/01 11:07:15;;;;;;;5.25;2.50;;;;;;;24.79;72.96;100607.34;5015320;28;20208;-76
2022/07/01 11:09:42;;;;;;;3.95;2.15;;;;;;;24.75;73.51;100615.59;5030072;28;20196;-76
2022/07/01 11:12:09;;;;;;;2.85;1.92;;;;;;;24.83;71.76;100609.56;5012039;28;20203;-76
2022/07/01 11:14:36;;;;;;;2.05;1.90;;;;;;;24.59;70.22;100620.56;5014106;28;20660;-76
2022/07/01 11:17:04;;;;;;;2.65;1.60;;;;;;;24.51;72.17;100610.50;5032934;28;20203;-76
2022/07/01 11:19:30;;;;;;;2.70;1.58;;;;;;;24.69;72.25;100607.25;5012866;28;20484;-76
2022/07/01 11:21:56;;;;;;;3.30;2.05;;;;;;;24.71;71.88;100607.97;5029605;28;20696;-76
2022/07/01 11:24:24;;;;;;;1.58;1.48;;;;;;;24.49;69.99;100608.94;5010615;28;20219;-76